createdAt,value
2023-05-16T00:00:17.977Z,95.30
2023-05-16T00:05:22.986Z,95.60
2023-05-16T00:10:27.202Z,95.80
2023-05-16T00:15:30.854Z,96.00
2023-05-16T00:20:35.893Z,96.30
2023-05-16T00:25:39.573Z,96.60
2023-05-16T00:30:43.072Z,96.90
2023-05-16T00:35:48.084Z,97.10
2023-05-16T00:40:51.637Z,97.20
2023-05-16T00:45:55.173Z,97.50
2023-05-16T00:51:00.401Z,97.70
2023-05-16T00:56:04.149Z,97.90
2023-05-16T01:01:08.234Z,98.10
2023-05-16T01:06:13.892Z,98.30
2023-05-16T01:11:22.075Z,98.50
2023-05-16T01:16:32.580Z,98.80
2023-05-16T01:21:49.359Z,99.10
2023-05-16T01:26:55.785Z,99.40
2023-05-16T01:31:59.659Z,99.70
2023-05-16T01:37:14.136Z,99.90
2023-05-16T01:42:22.689Z,99.90
2023-05-16T01:47:27.735Z,99.90
2023-05-16T01:52:45.601Z,99.90
2023-05-16T01:57:53.071Z,99.90
2023-05-16T02:02:56.811Z,99.90
2023-05-16T02:08:00.785Z,99.90
2023-05-16T02:13:05.874Z,99.90
2023-05-16T02:18:09.771Z,99.90
2023-05-16T02:23:13.807Z,99.90
2023-05-16T02:28:18.774Z,99.90
2023-05-16T02:33:22.346Z,99.90
2023-05-16T02:38:26.023Z,99.90
2023-05-16T02:43:31.153Z,99.90
2023-05-16T02:48:34.987Z,99.90
2023-05-16T02:53:38.654Z,99.90
2023-05-16T02:58:43.819Z,99.90
2023-05-16T03:03:47.713Z,99.90
2023-05-16T03:08:51.129Z,99.90
2023-05-16T03:13:56.525Z,99.90
2023-05-16T03:19:00.707Z,99.90
2023-05-16T03:24:04.377Z,99.90
2023-05-16T03:29:09.426Z,99.90
2023-05-16T03:34:13.264Z,99.90
2023-05-16T03:39:17.214Z,99.90
2023-05-16T03:44:22.293Z,99.90
2023-05-16T03:49:28.707Z,99.90
2023-05-16T03:54:32.421Z,99.90
2023-05-16T03:59:37.318Z,99.90
2023-05-16T04:04:40.838Z,99.90
2023-05-16T04:09:44.483Z,99.90
2023-05-16T04:14:49.478Z,99.90
2023-05-16T04:19:52.922Z,99.90
2023-05-16T04:24:57.434Z,99.90
2023-05-16T04:30:02.519Z,99.90
2023-05-16T04:35:06.493Z,99.90
2023-05-16T04:40:11.544Z,99.90
2023-05-16T04:45:20.338Z,99.90
2023-05-16T04:50:24.004Z,99.90
2023-05-16T04:55:27.931Z,99.90
2023-05-16T05:00:32.830Z,99.90
2023-05-16T05:05:36.225Z,99.90
2023-05-16T05:10:39.820Z,99.90
2023-05-16T05:15:44.727Z,99.90
2023-05-16T05:20:48.320Z,99.90
2023-05-16T05:25:52.238Z,99.90
2023-05-16T05:30:57.247Z,99.90
2023-05-16T05:36:03.903Z,99.90
2023-05-16T05:41:08.261Z,99.90
2023-05-16T05:46:13.329Z,99.90
2023-05-16T05:51:18.164Z,99.90
2023-05-16T05:56:22.338Z,99.90
2023-05-16T06:01:27.679Z,99.90
2023-05-16T06:06:31.587Z,99.90
2023-05-16T06:11:35.334Z,99.90
2023-05-16T06:16:40.935Z,99.90
2023-05-16T06:21:45.975Z,99.90
2023-05-16T06:26:50.689Z,99.90
2023-05-16T06:31:55.866Z,99.90
2023-05-16T06:37:00.101Z,99.90
2023-05-16T06:42:03.794Z,99.90
2023-05-16T06:47:10.437Z,99.70
2023-05-16T06:52:13.817Z,99.60
2023-05-16T06:57:17.569Z,99.50
2023-05-16T07:02:22.349Z,99.40
2023-05-16T07:07:25.934Z,99.30
2023-05-16T07:12:29.376Z,99.30
2023-05-16T07:17:34.378Z,99.20
2023-05-16T07:22:37.949Z,99.10
2023-05-16T07:27:45.059Z,99.30
2023-05-16T07:32:50.823Z,99.40
2023-05-16T07:37:54.223Z,99.50
2023-05-16T07:42:59.790Z,99.40
2023-05-16T07:48:04.810Z,99.40
2023-05-16T07:53:08.421Z,99.10
2023-05-16T07:58:12.133Z,98.80
2023-05-16T08:03:17.249Z,98.80
2023-05-16T08:08:22.336Z,98.80
2023-05-16T08:13:26.209Z,97.90
2023-05-16T08:18:31.228Z,96.80
2023-05-16T08:23:34.900Z,95.90
2023-05-16T08:28:38.506Z,95.00
2023-05-16T08:33:43.595Z,95.00
2023-05-16T08:38:47.211Z,94.70
2023-05-16T08:43:50.962Z,94.20
2023-05-16T08:49:00.109Z,93.40
2023-05-16T08:54:05.991Z,92.30
2023-05-16T08:59:11.508Z,92.20
2023-05-16T09:04:17.201Z,92.40
2023-05-16T09:09:21.230Z,92.60
2023-05-16T09:14:24.529Z,92.30
2023-05-16T09:19:34.339Z,91.40
2023-05-16T09:24:40.784Z,90.70
2023-05-16T09:29:45.357Z,90.60
2023-05-16T09:34:53.005Z,90.90
2023-05-16T09:39:56.805Z,91.00
2023-05-16T09:45:02.880Z,90.50
2023-05-16T09:50:09.277Z,90.00
2023-05-16T09:55:15.317Z,90.20
2023-05-16T10:00:20.103Z,90.10
2023-05-16T10:05:25.935Z,90.10
2023-05-16T10:10:29.798Z,90.10
2023-05-16T10:15:34.026Z,90.20
2023-05-16T10:20:39.970Z,90.40
2023-05-16T10:25:45.097Z,90.20
2023-05-16T10:30:49.286Z,89.40
2023-05-16T10:35:55.026Z,88.80
2023-05-16T10:40:58.772Z,88.00
2023-05-16T10:46:06.126Z,87.80
2023-05-16T10:51:39.259Z,87.60
2023-05-16T10:56:43.753Z,88.20
2023-05-16T11:01:54.889Z,88.50
2023-05-16T11:07:00.702Z,89.30
2023-05-16T11:12:04.453Z,88.90
2023-05-16T11:17:12.831Z,88.70
2023-05-16T11:22:28.307Z,88.70
2023-05-16T11:27:33.230Z,88.20
2023-05-16T11:32:38.628Z,87.50
2023-05-16T11:37:43.737Z,86.80
2023-05-16T11:42:49.164Z,85.10
2023-05-16T11:47:52.562Z,83.10
2023-05-16T11:52:57.973Z,83.20
2023-05-16T11:58:02.410Z,83.00
2023-05-16T12:03:06.917Z,82.20
2023-05-16T12:08:13.079Z,81.00
2023-05-16T12:13:19.364Z,79.70
2023-05-16T12:18:26.434Z,78.80
2023-05-16T12:23:32.141Z,78.00
2023-05-16T12:28:39.707Z,78.00
2023-05-16T12:33:43.475Z,77.60
2023-05-16T12:38:49.584Z,77.40
2023-05-16T12:43:53.275Z,74.80
2023-05-16T12:49:05.583Z,72.70
2023-05-16T12:54:12.596Z,71.50
2023-05-16T12:59:17.163Z,70.20
2023-05-16T13:04:20.836Z,69.80
2023-05-16T13:09:29.073Z,68.80
2023-05-16T13:14:35.580Z,67.00
2023-05-16T13:19:39.182Z,66.40
2023-05-16T13:24:44.154Z,65.80
2023-05-16T13:29:48.054Z,65.10
2023-05-16T13:34:51.618Z,64.20
2023-05-16T13:39:56.727Z,62.80
2023-05-16T13:45:00.065Z,62.40
2023-05-16T13:50:06.628Z,62.80
2023-05-16T13:55:11.872Z,63.30
2023-05-16T14:05:23.147Z,61.90
2023-05-16T14:10:28.401Z,61.10
2023-05-16T14:15:32.219Z,61.40
2023-05-16T14:20:35.861Z,60.00
2023-05-16T14:25:40.437Z,60.20
2023-05-16T14:30:44.966Z,60.10
2023-05-16T14:35:50.283Z,60.10
2023-05-16T14:40:54.900Z,60.10
2023-05-16T14:45:58.332Z,59.70
2023-05-16T14:51:01.683Z,58.10
2023-05-16T14:56:06.751Z,57.60
2023-05-16T15:01:10.125Z,57.00
2023-05-16T15:06:13.600Z,57.40
2023-05-16T15:11:18.278Z,56.70
2023-05-16T15:16:21.914Z,55.90
2023-05-16T15:21:25.683Z,55.70
2023-05-16T15:26:31.032Z,55.20
2023-05-16T15:31:35.049Z,55.20
2023-05-16T15:36:38.832Z,55.10
2023-05-16T15:42:08.444Z,54.90
2023-05-16T15:47:08.451Z,55.10
2023-05-16T15:52:12.129Z,54.70
2023-05-16T15:57:16.823Z,54.20
2023-05-16T16:02:20.088Z,54.30
2023-05-16T16:07:23.362Z,54.30
2023-05-16T16:12:31.460Z,53.70
2023-05-16T16:17:35.369Z,53.10
2023-05-16T16:22:38.709Z,53.30
2023-05-16T16:27:43.973Z,52.80
2023-05-16T16:32:48.975Z,53.10
2023-05-16T16:38:05.769Z,52.90
2023-05-16T16:43:11.905Z,52.40
2023-05-16T16:48:15.570Z,52.30
2023-05-16T16:53:19.212Z,51.80
2023-05-16T16:58:24.257Z,51.90
2023-05-16T17:03:27.898Z,51.30
2023-05-16T17:08:31.780Z,50.60
2023-05-16T17:13:37.978Z,49.80
2023-05-16T17:18:43.235Z,49.90
2023-05-16T17:23:46.887Z,49.70
2023-05-16T17:28:52.341Z,49.60
2023-05-16T17:33:55.694Z,49.50
2023-05-16T17:38:59.634Z,47.30
2023-05-16T17:44:06.791Z,47.50
2023-05-16T17:49:10.688Z,47.60
2023-05-16T17:54:13.952Z,48.00
2023-05-16T17:59:19.120Z,48.30
2023-05-16T18:04:23.815Z,48.60
2023-05-16T18:09:27.518Z,48.60
2023-05-16T18:14:33.056Z,48.80
2023-05-16T18:19:37.511Z,49.40
2023-05-16T18:24:41.346Z,50.10
2023-05-16T18:29:46.524Z,51.20
2023-05-16T18:34:50.316Z,52.20
2023-05-16T18:39:53.950Z,53.20
2023-05-16T18:44:58.607Z,53.90
2023-05-16T18:50:02.713Z,54.50
2023-05-16T18:55:06.727Z,54.60
2023-05-16T19:00:12.776Z,55.00
2023-05-16T19:05:16.323Z,55.40
2023-05-16T19:10:28.642Z,56.00
2023-05-16T19:15:34.267Z,56.50
2023-05-16T19:20:37.925Z,57.10
2023-05-16T19:25:47.721Z,57.80
2023-05-16T19:30:52.754Z,58.70
2023-05-16T19:35:57.698Z,59.60
2023-05-16T19:41:01.162Z,60.20
2023-05-16T19:46:05.927Z,60.80
2023-05-16T19:51:09.876Z,61.30
2023-05-16T19:56:13.294Z,61.70
2023-05-16T20:01:20.317Z,62.10
2023-05-16T20:06:23.645Z,62.40
2023-05-16T20:11:27.078Z,62.80
2023-05-16T20:16:32.202Z,63.20
2023-05-16T20:21:35.987Z,63.60
2023-05-16T20:26:39.827Z,64.00
2023-05-16T20:31:44.914Z,64.40
2023-05-16T20:36:48.556Z,64.90
2023-05-16T20:41:52.309Z,65.70
2023-05-16T20:46:57.454Z,65.70
2023-05-16T20:52:01.089Z,65.90
2023-05-16T20:57:04.871Z,66.00
2023-05-16T21:02:11.229Z,66.20
2023-05-16T21:07:14.899Z,66.60
2023-05-16T21:12:18.488Z,66.90
2023-05-16T21:17:23.439Z,67.30
2023-05-16T21:22:27.092Z,67.70
2023-05-16T21:27:30.372Z,68.00
2023-05-16T21:32:35.002Z,68.40
2023-05-16T21:37:38.311Z,68.80
2023-05-16T21:42:41.649Z,69.20
2023-05-16T21:47:46.672Z,69.40
2023-05-16T21:52:49.989Z,69.60
2023-05-16T21:57:53.201Z,69.80
2023-05-16T22:02:57.966Z,70.10
2023-05-16T22:08:01.267Z,70.30
2023-05-16T22:13:04.555Z,70.80
2023-05-16T22:18:09.375Z,71.20
2023-05-16T22:23:12.607Z,71.70
2023-05-16T22:28:15.833Z,72.30
2023-05-16T22:33:22.688Z,72.70
2023-05-16T22:38:26.078Z,73.20
2023-05-16T22:43:29.613Z,73.80
2023-05-16T22:48:34.308Z,74.30
2023-05-16T22:53:37.520Z,74.80
2023-05-16T22:58:40.751Z,75.40
2023-05-16T23:03:45.504Z,76.00
2023-05-16T23:08:49.286Z,76.50
2023-05-16T23:13:52.785Z,77.20
2023-05-16T23:18:57.939Z,77.80
2023-05-16T23:24:01.282Z,78.30
2023-05-16T23:29:04.500Z,79.00
2023-05-16T23:34:09.968Z,79.50
2023-05-16T23:39:13.717Z,80.20
2023-05-16T23:44:17.045Z,80.80
2023-05-16T23:49:22.036Z,81.40
2023-05-16T23:54:25.938Z,81.90
2023-05-16T23:59:29.746Z,82.50
